sensor_id;sensor_type;location;lat;lon;timestamp;pressure;altitude;pressure_sealevel;temperature;humidity
20825;BME280;10573;50.936;6.978;2022-12-19T00:00:11;101834.53;;;1.77;68.20
20825;BME280;10573;50.936;6.978;2022-12-19T00:02:37;101824.72;;;1.98;67.82
20825;BME280;10573;50.936;6.978;2022-12-19T00:05:02;101816.47;;;2.03;67.83
20825;BME280;10573;50.936;6.978;2022-12-19T00:07:28;101824.59;;;1.79;68.00
20825;BME280;10573;50.936;6.978;2022-12-19T00:09:53;101813.28;;;1.93;68.19
20825;BME280;10573;50.936;6.978;2022-12-19T00:12:18;101813.66;;;2.06;67.82
20825;BME280;10573;50.936;6.978;2022-12-19T00:14:44;101813.03;;;1.99;67.65
20825;BME280;10573;50.936;6.978;2022-12-19T00:17:09;101804.91;;;2.00;67.92
20825;BME280;10573;50.936;6.978;2022-12-19T00:19:35;101809.97;;;1.86;68.40
20825;BME280;10573;50.936;6.978;2022-12-19T00:22:00;101800.59;;;1.96;68.09
20825;BME280;10573;50.936;6.978;2022-12-19T00:24:25;101792.38;;;2.22;67.91
20825;BME280;10573;50.936;6.978;2022-12-19T00:26:51;101801.09;;;2.27;67.90
20825;BME280;10573;50.936;6.978;2022-12-19T00:29:16;101798.91;;;2.37;68.12
20825;BME280;10573;50.936;6.978;2022-12-19T00:31:42;101798.78;;;2.40;67.88
20825;BME280;10573;50.936;6.978;2022-12-19T00:34:07;101792.31;;;2.23;67.94
20825;BME280;10573;50.936;6.978;2022-12-19T00:36:33;101799.94;;;2.34;68.43
20825;BME280;10573;50.936;6.978;2022-12-19T00:39:00;101785.03;;;2.25;68.70
20825;BME280;10573;50.936;6.978;2022-12-19T00:41:31;101793.22;;;2.01;69.52
20825;BME280;10573;50.936;6.978;2022-12-19T00:44:00;101790.78;;;2.38;68.70
20825;BME280;10573;50.936;6.978;2022-12-19T00:46:26;101768.81;;;2.28;68.69
20825;BME280;10573;50.936;6.978;2022-12-19T00:48:52;101769.19;;;2.40;68.64
20825;BME280;10573;50.936;6.978;2022-12-19T00:51:20;101772.97;;;2.35;68.79
20825;BME280;10573;50.936;6.978;2022-12-19T00:53:47;101769.72;;;2.48;69.02
20825;BME280;10573;50.936;6.978;2022-12-19T00:56:18;101786.06;;;2.23;69.23
20825;BME280;10573;50.936;6.978;2022-12-19T00:58:44;101783.84;;;2.32;69.17
20825;BME280;10573;50.936;6.978;2022-12-19T01:01:14;101792.78;;;2.33;69.51
20825;BME280;10573;50.936;6.978;2022-12-19T01:03:40;101773.84;;;2.57;68.98
20825;BME280;10573;50.936;6.978;2022-12-19T01:06:06;101773.75;;;2.38;69.49
20825;BME280;10573;50.936;6.978;2022-12-19T01:08:32;101785.88;;;2.48;69.11
20825;BME280;10573;50.936;6.978;2022-12-19T01:10:58;101773.81;;;2.36;69.43
20825;BME280;10573;50.936;6.978;2022-12-19T01:13:25;101774.44;;;2.63;69.05
20825;BME280;10573;50.936;6.978;2022-12-19T01:15:50;101774.84;;;2.54;69.10
20825;BME280;10573;50.936;6.978;2022-12-19T01:18:16;101774.28;;;2.66;69.25
20825;BME280;10573;50.936;6.978;2022-12-19T01:20:43;101764.13;;;2.73;68.98
20825;BME280;10573;50.936;6.978;2022-12-19T01:23:09;101754.97;;;2.77;69.17
20825;BME280;10573;50.936;6.978;2022-12-19T01:25:36;101748.19;;;2.68;69.33
20825;BME280;10573;50.936;6.978;2022-12-19T01:28:03;101740.41;;;2.62;69.86
20825;BME280;10573;50.936;6.978;2022-12-19T01:30:29;101734.59;;;2.72;70.17
20825;BME280;10573;50.936;6.978;2022-12-19T01:32:56;101734.78;;;2.88;69.89
20825;BME280;10573;50.936;6.978;2022-12-19T01:35:22;101744.06;;;2.80;70.21
20825;BME280;10573;50.936;6.978;2022-12-19T01:37:49;101749.66;;;2.76;70.18
20825;BME280;10573;50.936;6.978;2022-12-19T01:40:15;101740.69;;;2.75;70.31
20825;BME280;10573;50.936;6.978;2022-12-19T01:42:41;101744.72;;;2.85;70.13
20825;BME280;10573;50.936;6.978;2022-12-19T01:47:35;101735.63;;;2.88;70.29
20825;BME280;10573;50.936;6.978;2022-12-19T01:50:03;101729.25;;;2.91;70.05
20825;BME280;10573;50.936;6.978;2022-12-19T01:52:29;101717.16;;;2.80;70.21
20825;BME280;10573;50.936;6.978;2022-12-19T01:54:54;101723.28;;;2.84;70.12
20825;BME280;10573;50.936;6.978;2022-12-19T01:57:20;101718.41;;;2.92;70.00
20825;BME280;10573;50.936;6.978;2022-12-19T01:59:51;101717.53;;;2.73;70.64
20825;BME280;10573;50.936;6.978;2022-12-19T02:02:33;101713.00;;;2.73;70.27
20825;BME280;10573;50.936;6.978;2022-12-19T02:05:00;101713.53;;;3.00;69.68
20825;BME280;10573;50.936;6.978;2022-12-19T02:07:26;101718.63;;;3.07;69.65
20825;BME280;10573;50.936;6.978;2022-12-19T02:09:54;101713.84;;;2.94;69.44
20825;BME280;10573;50.936;6.978;2022-12-19T02:12:21;101721.97;;;3.12;69.42
20825;BME280;10573;50.936;6.978;2022-12-19T02:14:47;101707.75;;;3.27;68.87
20825;BME280;10573;50.936;6.978;2022-12-19T02:31:07;101659.56;;;3.04;69.27
20825;BME280;10573;50.936;6.978;2022-12-19T02:36:20;101654.31;;;3.00;69.48
20825;BME280;10573;50.936;6.978;2022-12-19T02:38:57;101655.19;;;3.01;69.71
20825;BME280;10573;50.936;6.978;2022-12-19T02:41:45;101646.72;;;3.09;69.16
20825;BME280;10573;50.936;6.978;2022-12-19T02:44:17;101644.59;;;3.15;69.16
20825;BME280;10573;50.936;6.978;2022-12-19T02:46:45;101646.34;;;3.16;68.98
20825;BME280;10573;50.936;6.978;2022-12-19T02:49:12;101650.06;;;3.14;68.63
20825;BME280;10573;50.936;6.978;2022-12-19T02:51:39;101649.47;;;3.26;68.97
20825;BME280;10573;50.936;6.978;2022-12-19T02:54:04;101644.81;;;3.30;68.22
20825;BME280;10573;50.936;6.978;2022-12-19T02:59:36;101626.44;;;3.38;68.66
20825;BME280;10573;50.936;6.978;2022-12-19T03:02:26;101628.69;;;3.11;68.90
20825;BME280;10573;50.936;6.978;2022-12-19T03:05:13;101633.25;;;3.09;68.89
20825;BME280;10573;50.936;6.978;2022-12-19T03:08:00;101623.19;;;3.31;68.67
20825;BME280;10573;50.936;6.978;2022-12-19T03:10:36;101622.91;;;3.01;69.20
20825;BME280;10573;50.936;6.978;2022-12-19T03:13:14;101622.41;;;3.29;68.43
20825;BME280;10573;50.936;6.978;2022-12-19T03:15:42;101616.56;;;3.39;68.58
20825;BME280;10573;50.936;6.978;2022-12-19T03:18:09;101619.09;;;3.42;69.05
20825;BME280;10573;50.936;6.978;2022-12-19T03:20:58;101619.69;;;3.12;69.51
20825;BME280;10573;50.936;6.978;2022-12-19T03:23:27;101616.44;;;3.23;69.80
20825;BME280;10573;50.936;6.978;2022-12-19T03:25:55;101606.38;;;3.26;69.96
20825;BME280;10573;50.936;6.978;2022-12-19T03:28:26;101619.22;;;3.21;69.76
20825;BME280;10573;50.936;6.978;2022-12-19T03:30:55;101608.00;;;3.30;69.69
20825;BME280;10573;50.936;6.978;2022-12-19T03:33:24;101607.31;;;3.08;70.44
20825;BME280;10573;50.936;6.978;2022-12-19T03:35:51;101616.31;;;3.07;70.55
20825;BME280;10573;50.936;6.978;2022-12-19T03:38:18;101608.19;;;3.26;70.29
20825;BME280;10573;50.936;6.978;2022-12-19T03:40:45;101604.66;;;3.06;71.05
20825;BME280;10573;50.936;6.978;2022-12-19T03:43:15;101603.53;;;3.29;70.65
20825;BME280;10573;50.936;6.978;2022-12-19T03:45:59;101595.84;;;3.22;70.40
20825;BME280;10573;50.936;6.978;2022-12-19T03:53:47;101574.16;;;3.42;70.84
20825;BME280;10573;50.936;6.978;2022-12-19T03:59:05;101572.44;;;3.41;70.84
20825;BME280;10573;50.936;6.978;2022-12-19T04:01:33;101567.03;;;3.41;71.10
20825;BME280;10573;50.936;6.978;2022-12-19T04:04:01;101575.03;;;3.43;71.21
20825;BME280;10573;50.936;6.978;2022-12-19T04:06:32;101566.53;;;3.50;71.36
20825;BME280;10573;50.936;6.978;2022-12-19T04:08:59;101563.88;;;3.68;70.69
20825;BME280;10573;50.936;6.978;2022-12-19T04:11:26;101561.00;;;3.53;71.29
20825;BME280;10573;50.936;6.978;2022-12-19T04:14:01;101562.22;;;3.48;71.65
20825;BME280;10573;50.936;6.978;2022-12-19T04:16:51;101560.00;;;3.56;71.85
20825;BME280;10573;50.936;6.978;2022-12-19T04:19:44;101557.22;;;3.58;71.91
20825;BME280;10573;50.936;6.978;2022-12-19T04:22:21;101564.56;;;3.36;72.27
20825;BME280;10573;50.936;6.978;2022-12-19T04:24:50;101561.56;;;3.60;72.35
20825;BME280;10573;50.936;6.978;2022-12-19T04:27:17;101559.81;;;3.59;72.62
20825;BME280;10573;50.936;6.978;2022-12-19T04:29:45;101565.50;;;3.35;72.68
20825;BME280;10573;50.936;6.978;2022-12-19T04:32:11;101567.91;;;3.59;72.76
20825;BME280;10573;50.936;6.978;2022-12-19T04:34:38;101571.75;;;3.89;72.37
20825;BME280;10573;50.936;6.978;2022-12-19T04:37:04;101572.97;;;3.83;72.19
20825;BME280;10573;50.936;6.978;2022-12-19T04:39:30;101574.47;;;3.71;72.71
20825;BME280;10573;50.936;6.978;2022-12-19T04:41:56;101570.28;;;3.65;72.94
20825;BME280;10573;50.936;6.978;2022-12-19T04:44:21;101570.66;;;3.75;72.99
20825;BME280;10573;50.936;6.978;2022-12-19T04:46:46;101570.34;;;3.81;73.04
20825;BME280;10573;50.936;6.978;2022-12-19T04:49:12;101584.88;;;3.79;73.10
20825;BME280;10573;50.936;6.978;2022-12-19T04:51:37;101572.47;;;3.92;73.05
20825;BME280;10573;50.936;6.978;2022-12-19T04:54:02;101571.81;;;4.05;73.24
20825;BME280;10573;50.936;6.978;2022-12-19T04:56:28;101562.28;;;3.97;73.37
20825;BME280;10573;50.936;6.978;2022-12-19T04:58:57;101561.56;;;4.11;73.08
20825;BME280;10573;50.936;6.978;2022-12-19T05:01:23;101564.50;;;4.07;73.19
20825;BME280;10573;50.936;6.978;2022-12-19T05:03:49;101561.16;;;4.01;73.41
20825;BME280;10573;50.936;6.978;2022-12-19T05:06:14;101553.06;;;4.19;73.12
20825;BME280;10573;50.936;6.978;2022-12-19T05:08:42;101557.97;;;4.11;73.28
20825;BME280;10573;50.936;6.978;2022-12-19T05:11:09;101558.47;;;3.85;73.98
20825;BME280;10573;50.936;6.978;2022-12-19T05:13:35;101562.44;;;4.12;73.54
20825;BME280;10573;50.936;6.978;2022-12-19T05:16:06;101562.72;;;4.23;73.15
20825;BME280;10573;50.936;6.978;2022-12-19T05:18:32;101562.16;;;4.00;73.68
20825;BME280;10573;50.936;6.978;2022-12-19T05:20:58;101550.75;;;3.95;73.96
20825;BME280;10573;50.936;6.978;2022-12-19T05:23:23;101546.16;;;3.80;74.76
20825;BME280;10573;50.936;6.978;2022-12-19T05:25:49;101547.09;;;3.96;73.97
20825;BME280;10573;50.936;6.978;2022-12-19T05:28:15;101549.88;;;4.11;74.18
20825;BME280;10573;50.936;6.978;2022-12-19T05:30:41;101547.41;;;3.90;74.56
20825;BME280;10573;50.936;6.978;2022-12-19T05:33:07;101548.50;;;4.03;74.12
20825;BME280;10573;50.936;6.978;2022-12-19T05:35:33;101542.78;;;4.10;74.02
20825;BME280;10573;50.936;6.978;2022-12-19T05:37:59;101540.00;;;4.11;74.17
20825;BME280;10573;50.936;6.978;2022-12-19T05:40:25;101537.63;;;4.05;73.90
20825;BME280;10573;50.936;6.978;2022-12-19T05:42:51;101534.06;;;4.05;74.54
20825;BME280;10573;50.936;6.978;2022-12-19T05:45:16;101529.34;;;3.92;74.54
20825;BME280;10573;50.936;6.978;2022-12-19T05:47:44;101545.28;;;4.13;74.46
20825;BME280;10573;50.936;6.978;2022-12-19T05:50:14;101547.31;;;4.25;73.92
20825;BME280;10573;50.936;6.978;2022-12-19T05:52:39;101546.06;;;4.15;74.20
20825;BME280;10573;50.936;6.978;2022-12-19T05:55:06;101549.59;;;4.33;74.35
20825;BME280;10573;50.936;6.978;2022-12-19T05:57:32;101545.69;;;4.39;73.74
20825;BME280;10573;50.936;6.978;2022-12-19T05:59:58;101536.03;;;4.50;73.66
20825;BME280;10573;50.936;6.978;2022-12-19T06:02:24;101544.91;;;4.36;73.48
20825;BME280;10573;50.936;6.978;2022-12-19T06:04:49;101549.78;;;4.30;74.19
20825;BME280;10573;50.936;6.978;2022-12-19T06:07:15;101553.50;;;4.27;74.26
20825;BME280;10573;50.936;6.978;2022-12-19T06:09:40;101545.44;;;4.43;74.26
20825;BME280;10573;50.936;6.978;2022-12-19T06:12:06;101550.47;;;4.49;73.77
20825;BME280;10573;50.936;6.978;2022-12-19T06:14:32;101552.66;;;4.59;73.68
20825;BME280;10573;50.936;6.978;2022-12-19T06:16:57;101546.03;;;4.48;74.21
20825;BME280;10573;50.936;6.978;2022-12-19T06:19:23;101542.47;;;4.64;73.81
20825;BME280;10573;50.936;6.978;2022-12-19T06:21:48;101542.28;;;4.51;74.13
20825;BME280;10573;50.936;6.978;2022-12-19T06:24:14;101541.66;;;4.46;74.19
20825;BME280;10573;50.936;6.978;2022-12-19T06:26:39;101541.84;;;4.43;74.35
20825;BME280;10573;50.936;6.978;2022-12-19T06:29:05;101546.13;;;4.63;74.20
20825;BME280;10573;50.936;6.978;2022-12-19T06:31:30;101554.50;;;4.58;74.29
20825;BME280;10573;50.936;6.978;2022-12-19T06:33:56;101556.91;;;4.47;74.45
20825;BME280;10573;50.936;6.978;2022-12-19T06:36:24;101554.03;;;4.82;73.99
20825;BME280;10573;50.936;6.978;2022-12-19T06:38:50;101553.94;;;4.83;73.12
20825;BME280;10573;50.936;6.978;2022-12-19T06:41:16;101550.47;;;4.97;72.77
20825;BME280;10573;50.936;6.978;2022-12-19T06:44:03;101553.94;;;4.99;72.98
20825;BME280;10573;50.936;6.978;2022-12-19T06:46:29;101555.34;;;5.07;73.00
20825;BME280;10573;50.936;6.978;2022-12-19T06:48:55;101554.53;;;5.04;72.53
20825;BME280;10573;50.936;6.978;2022-12-19T06:51:21;101560.22;;;4.84;73.40
20825;BME280;10573;50.936;6.978;2022-12-19T06:53:47;101566.47;;;5.16;72.52
20825;BME280;10573;50.936;6.978;2022-12-19T06:56:14;101567.25;;;5.18;72.54
20825;BME280;10573;50.936;6.978;2022-12-19T06:58:39;101557.28;;;5.35;72.99
20825;BME280;10573;50.936;6.978;2022-12-19T07:01:05;101558.13;;;5.35;72.47
20825;BME280;10573;50.936;6.978;2022-12-19T07:03:34;101561.69;;;5.06;73.39
20825;BME280;10573;50.936;6.978;2022-12-19T07:06:03;101566.91;;;5.09;73.33
20825;BME280;10573;50.936;6.978;2022-12-19T07:08:29;101570.28;;;5.28;73.07
20825;BME280;10573;50.936;6.978;2022-12-19T07:10:55;101568.94;;;5.35;72.54
20825;BME280;10573;50.936;6.978;2022-12-19T07:13:20;101568.75;;;5.08;73.20
20825;BME280;10573;50.936;6.978;2022-12-19T07:15:46;101575.34;;;5.18;73.43
20825;BME280;10573;50.936;6.978;2022-12-19T07:18:12;101573.81;;;4.98;74.16
20825;BME280;10573;50.936;6.978;2022-12-19T07:20:39;101576.94;;;4.91;74.10
20825;BME280;10573;50.936;6.978;2022-12-19T07:23:10;101579.13;;;5.30;73.66
20825;BME280;10573;50.936;6.978;2022-12-19T07:25:37;101580.16;;;5.44;72.74
20825;BME280;10573;50.936;6.978;2022-12-19T07:28:04;101573.84;;;5.59;72.58
20825;BME280;10573;50.936;6.978;2022-12-19T07:30:29;101571.75;;;5.64;72.49
20825;BME280;10573;50.936;6.978;2022-12-19T07:32:55;101569.28;;;5.60;72.46
20825;BME280;10573;50.936;6.978;2022-12-19T07:35:20;101582.69;;;5.00;74.01
20825;BME280;10573;50.936;6.978;2022-12-19T07:37:47;101577.44;;;5.29;73.80
20825;BME280;10573;50.936;6.978;2022-12-19T07:40:13;101575.69;;;5.28;73.75
20825;BME280;10573;50.936;6.978;2022-12-19T07:42:39;101582.63;;;5.32;73.72
20825;BME280;10573;50.936;6.978;2022-12-19T07:45:04;101581.97;;;5.13;74.32
20825;BME280;10573;50.936;6.978;2022-12-19T07:47:30;101575.44;;;5.47;73.62
20825;BME280;10573;50.936;6.978;2022-12-19T07:49:56;101578.13;;;5.17;74.13
20825;BME280;10573;50.936;6.978;2022-12-19T07:52:21;101571.81;;;5.32;73.97
20825;BME280;10573;50.936;6.978;2022-12-19T07:54:46;101560.00;;;5.19;74.68
20825;BME280;10573;50.936;6.978;2022-12-19T07:57:12;101557.16;;;5.36;74.34
20825;BME280;10573;50.936;6.978;2022-12-19T07:59:37;101561.38;;;5.26;74.48
20825;BME280;10573;50.936;6.978;2022-12-19T08:02:03;101563.44;;;5.37;74.27
20825;BME280;10573;50.936;6.978;2022-12-19T08:04:28;101554.56;;;5.35;74.55
20825;BME280;10573;50.936;6.978;2022-12-19T08:06:54;101556.56;;;5.62;73.62
20825;BME280;10573;50.936;6.978;2022-12-19T08:09:19;101553.69;;;5.34;74.45
20825;BME280;10573;50.936;6.978;2022-12-19T08:11:44;101549.63;;;5.58;74.41
20825;BME280;10573;50.936;6.978;2022-12-19T08:14:10;101553.56;;;5.66;74.27
20825;BME280;10573;50.936;6.978;2022-12-19T08:16:35;101557.22;;;5.51;74.07
20825;BME280;10573;50.936;6.978;2022-12-19T08:19:01;101560.78;;;5.51;74.12
20825;BME280;10573;50.936;6.978;2022-12-19T08:21:27;101561.03;;;5.32;74.65
20825;BME280;10573;50.936;6.978;2022-12-19T08:23:52;101567.09;;;5.66;74.13
20825;BME280;10573;50.936;6.978;2022-12-19T08:26:20;101565.09;;;5.70;74.23
20825;BME280;10573;50.936;6.978;2022-12-19T08:28:50;101565.22;;;5.83;73.68
20825;BME280;10573;50.936;6.978;2022-12-19T08:31:17;101559.81;;;5.83;73.82
20825;BME280;10573;50.936;6.978;2022-12-19T08:33:43;101567.81;;;5.84;73.99
20825;BME280;10573;50.936;6.978;2022-12-19T08:36:13;101571.44;;;5.99;73.91
20825;BME280;10573;50.936;6.978;2022-12-19T08:38:39;101575.88;;;6.15;73.42
20825;BME280;10573;50.936;6.978;2022-12-19T08:41:05;101579.56;;;6.14;73.97
20825;BME280;10573;50.936;6.978;2022-12-19T08:43:30;101569.31;;;6.04;74.23
20825;BME280;10573;50.936;6.978;2022-12-19T08:45:56;101566.00;;;6.28;73.71
20825;BME280;10573;50.936;6.978;2022-12-19T08:48:22;101564.09;;;6.30;73.71
20825;BME280;10573;50.936;6.978;2022-12-19T08:50:52;101584.56;;;6.20;73.40
20825;BME280;10573;50.936;6.978;2022-12-19T08:53:19;101582.19;;;6.15;74.03
20825;BME280;10573;50.936;6.978;2022-12-19T08:55:45;101577.16;;;6.24;74.29
20825;BME280;10573;50.936;6.978;2022-12-19T08:58:11;101577.03;;;6.40;73.95
20825;BME280;10573;50.936;6.978;2022-12-19T09:00:37;101573.66;;;6.21;74.22
20825;BME280;10573;50.936;6.978;2022-12-19T09:03:03;101573.09;;;6.16;73.97
20825;BME280;10573;50.936;6.978;2022-12-19T09:05:28;101576.09;;;6.41;73.74
20825;BME280;10573;50.936;6.978;2022-12-19T09:07:54;101580.88;;;6.50;73.86
20825;BME280;10573;50.936;6.978;2022-12-19T09:10:19;101581.66;;;6.66;73.79
20825;BME280;10573;50.936;6.978;2022-12-19T09:12:44;101578.59;;;6.58;73.65
20825;BME280;10573;50.936;6.978;2022-12-19T09:15:10;101574.50;;;6.65;73.33
20825;BME280;10573;50.936;6.978;2022-12-19T09:17:35;101580.22;;;6.61;73.67
20825;BME280;10573;50.936;6.978;2022-12-19T09:20:01;101578.63;;;6.71;73.62
20825;BME280;10573;50.936;6.978;2022-12-19T09:22:26;101565.53;;;6.50;73.65
20825;BME280;10573;50.936;6.978;2022-12-19T09:24:51;101555.50;;;6.38;74.35
20825;BME280;10573;50.936;6.978;2022-12-19T09:27:17;101550.72;;;6.42;74.35
20825;BME280;10573;50.936;6.978;2022-12-19T09:29:42;101557.31;;;6.37;74.73
20825;BME280;10573;50.936;6.978;2022-12-19T09:32:08;101556.34;;;6.38;74.24
20825;BME280;10573;50.936;6.978;2022-12-19T09:34:33;101548.25;;;6.10;75.08
20825;BME280;10573;50.936;6.978;2022-12-19T09:37:00;101559.84;;;6.12;75.17
20825;BME280;10573;50.936;6.978;2022-12-19T09:39:26;101555.19;;;6.28;74.75
20825;BME280;10573;50.936;6.978;2022-12-19T09:44:51;101550.25;;;6.35;74.43
20825;BME280;10573;50.936;6.978;2022-12-19T09:47:26;101558.59;;;6.32;73.79
20825;BME280;10573;50.936;6.978;2022-12-19T09:49:53;101556.34;;;6.24;74.43
20825;BME280;10573;50.936;6.978;2022-12-19T09:52:25;101546.84;;;6.46;73.93
20825;BME280;10573;50.936;6.978;2022-12-19T09:55:01;101540.53;;;6.18;74.27
20825;BME280;10573;50.936;6.978;2022-12-19T09:57:49;101540.53;;;6.03;74.43
20825;BME280;10573;50.936;6.978;2022-12-19T10:00:18;101532.47;;;6.31;73.78
20825;BME280;10573;50.936;6.978;2022-12-19T10:02:51;101531.25;;;6.22;74.13
20825;BME280;10573;50.936;6.978;2022-12-19T10:05:29;101537.81;;;6.03;74.56
20825;BME280;10573;50.936;6.978;2022-12-19T10:07:57;101544.09;;;6.18;74.44
20825;BME280;10573;50.936;6.978;2022-12-19T10:21:04;101539.94;;;6.13;74.82
20825;BME280;10573;50.936;6.978;2022-12-19T10:26:33;101543.63;;;6.26;73.77
20825;BME280;10573;50.936;6.978;2022-12-19T10:31:53;101527.06;;;6.31;74.39
20825;BME280;10573;50.936;6.978;2022-12-19T10:34:23;101522.06;;;6.25;74.37
20825;BME280;10573;50.936;6.978;2022-12-19T10:36:59;101520.00;;;6.43;74.13
20825;BME280;10573;50.936;6.978;2022-12-19T10:39:27;101521.38;;;6.21;74.36
20825;BME280;10573;50.936;6.978;2022-12-19T10:41:58;101507.38;;;6.29;74.38
20825;BME280;10573;50.936;6.978;2022-12-19T10:44:29;101507.28;;;6.16;74.07
20825;BME280;10573;50.936;6.978;2022-12-19T10:47:00;101501.97;;;6.29;73.98
20825;BME280;10573;50.936;6.978;2022-12-19T10:49:26;101503.69;;;6.30;74.07
20825;BME280;10573;50.936;6.978;2022-12-19T10:54:41;101494.47;;;6.47;73.80
20825;BME280;10573;50.936;6.978;2022-12-19T10:57:25;101492.84;;;6.44;73.84
20825;BME280;10573;50.936;6.978;2022-12-19T11:00:15;101498.91;;;6.62;73.38
20825;BME280;10573;50.936;6.978;2022-12-19T11:02:43;101501.13;;;6.83;72.25
20825;BME280;10573;50.936;6.978;2022-12-19T11:08:12;101501.81;;;6.86;72.38
20825;BME280;10573;50.936;6.978;2022-12-19T11:10:42;101511.34;;;6.92;72.00
20825;BME280;10573;50.936;6.978;2022-12-19T11:13:47;101516.94;;;6.76;71.85
20825;BME280;10573;50.936;6.978;2022-12-19T11:16:21;101504.63;;;6.85;71.93
20825;BME280;10573;50.936;6.978;2022-12-19T11:18:47;101498.84;;;7.04;71.78
20825;BME280;10573;50.936;6.978;2022-12-19T11:21:18;101509.94;;;6.86;72.22
20825;BME280;10573;50.936;6.978;2022-12-19T11:29:03;101515.31;;;7.14;70.86
20825;BME280;10573;50.936;6.978;2022-12-19T11:31:29;101518.38;;;7.22;70.78
20825;BME280;10573;50.936;6.978;2022-12-19T11:34:06;101525.75;;;7.20;70.67
20825;BME280;10573;50.936;6.978;2022-12-19T11:36:48;101527.28;;;7.24;71.28
20825;BME280;10573;50.936;6.978;2022-12-19T11:39:22;101522.44;;;7.42;70.45
20825;BME280;10573;50.936;6.978;2022-12-19T11:42:07;101528.25;;;7.23;70.56
20825;BME280;10573;50.936;6.978;2022-12-19T11:47:47;101523.22;;;7.44;70.48
20825;BME280;10573;50.936;6.978;2022-12-19T11:50:34;101530.91;;;7.37;70.22
20825;BME280;10573;50.936;6.978;2022-12-19T11:53:16;101534.91;;;7.45;70.29
20825;BME280;10573;50.936;6.978;2022-12-19T11:58:22;101517.38;;;7.63;69.69
20825;BME280;10573;50.936;6.978;2022-12-19T12:01:07;101514.97;;;7.59;70.17
20825;BME280;10573;50.936;6.978;2022-12-19T12:03:49;101503.69;;;7.65;69.88
20825;BME280;10573;50.936;6.978;2022-12-19T12:06:22;101501.63;;;7.43;70.16
20825;BME280;10573;50.936;6.978;2022-12-19T12:09:01;101508.47;;;7.48;70.36
20825;BME280;10573;50.936;6.978;2022-12-19T12:11:32;101491.94;;;7.38;70.44
20825;BME280;10573;50.936;6.978;2022-12-19T12:14:18;101487.44;;;7.65;69.81
20825;BME280;10573;50.936;6.978;2022-12-19T12:25:15;101458.78;;;7.48;70.10
20825;BME280;10573;50.936;6.978;2022-12-19T12:30:19;101449.47;;;7.65;69.67
20825;BME280;10573;50.936;6.978;2022-12-19T12:33:13;101462.25;;;7.50;69.78
20825;BME280;10573;50.936;6.978;2022-12-19T12:35:48;101459.22;;;7.67;69.70
20825;BME280;10573;50.936;6.978;2022-12-19T12:38:42;101454.34;;;7.60;68.97
20825;BME280;10573;50.936;6.978;2022-12-19T12:41:26;101469.81;;;7.96;68.84
20825;BME280;10573;50.936;6.978;2022-12-19T12:44:17;101471.56;;;7.97;68.64
20825;BME280;10573;50.936;6.978;2022-12-19T12:46:48;101468.53;;;7.89;68.68
20825;BME280;10573;50.936;6.978;2022-12-19T12:51:42;101460.63;;;7.73;69.25
20825;BME280;10573;50.936;6.978;2022-12-19T12:54:11;101464.75;;;7.79;68.90
20825;BME280;10573;50.936;6.978;2022-12-19T12:56:38;101452.25;;;8.02;68.19
20825;BME280;10573;50.936;6.978;2022-12-19T12:59:05;101458.06;;;8.21;67.97
20825;BME280;10573;50.936;6.978;2022-12-19T13:01:41;101460.88;;;8.20;67.46
20825;BME280;10573;50.936;6.978;2022-12-19T13:17:03;101443.97;;;8.40;66.53
20825;BME280;10573;50.936;6.978;2022-12-19T13:19:31;101443.78;;;8.44;66.83
20825;BME280;10573;50.936;6.978;2022-12-19T13:24:50;101436.06;;;8.37;66.96
20825;BME280;10573;50.936;6.978;2022-12-19T13:32:20;101424.31;;;8.50;66.17
20825;BME280;10573;50.936;6.978;2022-12-19T13:35:00;101414.13;;;8.40;66.39
20825;BME280;10573;50.936;6.978;2022-12-19T13:37:29;101417.84;;;8.39;66.72
20825;BME280;10573;50.936;6.978;2022-12-19T13:42:22;101425.56;;;7.83;68.48
20825;BME280;10573;50.936;6.978;2022-12-19T13:47:45;101422.88;;;8.81;65.51
20825;BME280;10573;50.936;6.978;2022-12-19T13:50:21;101434.44;;;8.48;65.86
20825;BME280;10573;50.936;6.978;2022-12-19T13:52:50;101437.00;;;8.62;65.15
20825;BME280;10573;50.936;6.978;2022-12-19T13:55:16;101443.69;;;8.32;65.45
20825;BME280;10573;50.936;6.978;2022-12-19T13:57:41;101446.38;;;8.58;65.61
20825;BME280;10573;50.936;6.978;2022-12-19T14:00:09;101443.00;;;8.79;64.77
20825;BME280;10573;50.936;6.978;2022-12-19T14:02:45;101437.69;;;8.77;65.16
20825;BME280;10573;50.936;6.978;2022-12-19T14:05:33;101419.25;;;8.69;65.51
20825;BME280;10573;50.936;6.978;2022-12-19T14:08:04;101414.53;;;8.71;65.41
20825;BME280;10573;50.936;6.978;2022-12-19T14:10:43;101415.56;;;8.33;65.94
20825;BME280;10573;50.936;6.978;2022-12-19T14:13:16;101408.41;;;8.32;66.47
20825;BME280;10573;50.936;6.978;2022-12-19T14:16:01;101401.53;;;8.39;66.13
20825;BME280;10573;50.936;6.978;2022-12-19T14:18:28;101396.19;;;8.51;65.82
20825;BME280;10573;50.936;6.978;2022-12-19T14:21:15;101401.91;;;8.59;65.96
20825;BME280;10573;50.936;6.978;2022-12-19T14:23:42;101389.66;;;8.53;65.80
20825;BME280;10573;50.936;6.978;2022-12-19T14:26:22;101387.72;;;8.55;66.00
20825;BME280;10573;50.936;6.978;2022-12-19T14:28:57;101385.44;;;8.49;65.94
20825;BME280;10573;50.936;6.978;2022-12-19T14:31:25;101387.59;;;8.57;65.94
20825;BME280;10573;50.936;6.978;2022-12-19T14:33:52;101396.16;;;8.75;65.36
20825;BME280;10573;50.936;6.978;2022-12-19T14:36:24;101395.03;;;8.42;65.93
20825;BME280;10573;50.936;6.978;2022-12-19T14:38:50;101392.09;;;8.45;66.27
20825;BME280;10573;50.936;6.978;2022-12-19T14:41:34;101396.19;;;8.51;66.26
20825;BME280;10573;50.936;6.978;2022-12-19T14:44:19;101393.72;;;8.35;66.63
20825;BME280;10573;50.936;6.978;2022-12-19T14:47:07;101404.25;;;8.39;66.48
20825;BME280;10573;50.936;6.978;2022-12-19T14:49:34;101390.44;;;8.55;66.01
20825;BME280;10573;50.936;6.978;2022-12-19T14:52:04;101392.50;;;8.52;66.27
20825;BME280;10573;50.936;6.978;2022-12-19T14:54:29;101384.81;;;8.46;66.21
20825;BME280;10573;50.936;6.978;2022-12-19T14:56:57;101387.81;;;8.54;66.52